sensor_id;sensor_type;location;lat;lon;timestamp;P1;durP1;ratioP1;P2;durP2;ratioP2
12480;SDS011;6305;48.398;11.762;2022-11-18T00:02:21;5.38;;;2.70;;
12480;SDS011;6305;48.398;11.762;2022-11-18T00:04:47;5.85;;;2.45;;
12480;SDS011;6305;48.398;11.762;2022-11-18T00:07:14;6.28;;;2.63;;
12480;SDS011;6305;48.398;11.762;2022-11-18T00:09:41;4.53;;;2.55;;
12480;SDS011;6305;48.398;11.762;2022-11-18T00:12:08;4.70;;;2.50;;
12480;SDS011;6305;48.398;11.762;2022-11-18T00:14:53;6.90;;;2.35;;
12480;SDS011;6305;48.398;11.762;2022-11-18T00:17:20;4.82;;;2.30;;
12480;SDS011;6305;48.398;11.762;2022-11-18T00:19:48;5.15;;;2.55;;
12480;SDS011;6305;48.398;11.762;2022-11-18T00:22:15;3.78;;;2.40;;
12480;SDS011;6305;48.398;11.762;2022-11-18T00:24:41;3.83;;;2.42;;
12480;SDS011;6305;48.398;11.762;2022-11-18T00:27:08;7.90;;;2.60;;
12480;SDS011;6305;48.398;11.762;2022-11-18T00:29:35;5.72;;;2.38;;
12480;SDS011;6305;48.398;11.762;2022-11-18T00:32:04;5.22;;;2.45;;
12480;SDS011;6305;48.398;11.762;2022-11-18T00:34:31;6.70;;;2.20;;
12480;SDS011;6305;48.398;11.762;2022-11-18T00:36:58;2.58;;;1.90;;
12480;SDS011;6305;48.398;11.762;2022-11-18T00:39:24;3.67;;;2.10;;
12480;SDS011;6305;48.398;11.762;2022-11-18T00:41:51;5.80;;;2.50;;
12480;SDS011;6305;48.398;11.762;2022-11-18T00:44:35;4.97;;;2.22;;
12480;SDS011;6305;48.398;11.762;2022-11-18T00:47:04;6.20;;;2.58;;
12480;SDS011;6305;48.398;11.762;2022-11-18T00:49:34;6.05;;;2.60;;
12480;SDS011;6305;48.398;11.762;2022-11-18T00:52:00;5.40;;;2.53;;
12480;SDS011;6305;48.398;11.762;2022-11-18T00:54:27;5.88;;;2.70;;
12480;SDS011;6305;48.398;11.762;2022-11-18T00:56:54;3.95;;;2.35;;
12480;SDS011;6305;48.398;11.762;2022-11-18T00:59:21;6.32;;;2.80;;
12480;SDS011;6305;48.398;11.762;2022-11-18T01:01:48;6.65;;;2.70;;
12480;SDS011;6305;48.398;11.762;2022-11-18T01:04:16;4.75;;;2.75;;
12480;SDS011;6305;48.398;11.762;2022-11-18T01:06:43;6.00;;;3.00;;
12480;SDS011;6305;48.398;11.762;2022-11-18T01:09:09;6.60;;;2.80;;
12480;SDS011;6305;48.398;11.762;2022-11-18T01:11:36;7.25;;;2.65;;
12480;SDS011;6305;48.398;11.762;2022-11-18T01:14:22;5.85;;;2.50;;
12480;SDS011;6305;48.398;11.762;2022-11-18T01:16:52;4.32;;;2.50;;
12480;SDS011;6305;48.398;11.762;2022-11-18T01:19:20;4.78;;;2.22;;
12480;SDS011;6305;48.398;11.762;2022-11-18T01:21:47;4.40;;;2.13;;
12480;SDS011;6305;48.398;11.762;2022-11-18T01:24:14;7.10;;;3.05;;
12480;SDS011;6305;48.398;11.762;2022-11-18T01:26:41;4.60;;;2.80;;
12480;SDS011;6305;48.398;11.762;2022-11-18T01:29:08;6.18;;;2.85;;
12480;SDS011;6305;48.398;11.762;2022-11-18T01:31:36;4.32;;;2.40;;
12480;SDS011;6305;48.398;11.762;2022-11-18T01:34:03;5.47;;;2.30;;
12480;SDS011;6305;48.398;11.762;2022-11-18T01:36:31;3.90;;;2.47;;
12480;SDS011;6305;48.398;11.762;2022-11-18T01:38:59;5.15;;;2.17;;
12480;SDS011;6305;48.398;11.762;2022-11-18T01:41:26;4.68;;;2.50;;
12480;SDS011;6305;48.398;11.762;2022-11-18T01:43:54;6.90;;;2.15;;
12480;SDS011;6305;48.398;11.762;2022-11-18T01:46:22;8.95;;;2.25;;
12480;SDS011;6305;48.398;11.762;2022-11-18T01:48:51;4.10;;;2.28;;
12480;SDS011;6305;48.398;11.762;2022-11-18T01:51:22;4.85;;;2.22;;
12480;SDS011;6305;48.398;11.762;2022-11-18T01:53:56;3.22;;;2.33;;
12480;SDS011;6305;48.398;11.762;2022-11-18T01:56:28;3.80;;;2.20;;
12480;SDS011;6305;48.398;11.762;2022-11-18T01:59:00;3.97;;;2.08;;
12480;SDS011;6305;48.398;11.762;2022-11-18T02:01:30;3.88;;;2.28;;
12480;SDS011;6305;48.398;11.762;2022-11-18T02:03:57;4.93;;;2.35;;
12480;SDS011;6305;48.398;11.762;2022-11-18T02:06:24;6.97;;;2.58;;
12480;SDS011;6305;48.398;11.762;2022-11-18T02:08:51;5.43;;;2.53;;
12480;SDS011;6305;48.398;11.762;2022-11-18T02:11:19;6.65;;;3.03;;
12480;SDS011;6305;48.398;11.762;2022-11-18T02:14:04;4.63;;;2.15;;
12480;SDS011;6305;48.398;11.762;2022-11-18T02:16:37;4.32;;;2.53;;
12480;SDS011;6305;48.398;11.762;2022-11-18T02:19:23;4.10;;;2.50;;
12480;SDS011;6305;48.398;11.762;2022-11-18T02:22:13;4.15;;;2.33;;
12480;SDS011;6305;48.398;11.762;2022-11-18T02:24:48;5.25;;;2.47;;
12480;SDS011;6305;48.398;11.762;2022-11-18T02:30:41;5.07;;;2.50;;
12480;SDS011;6305;48.398;11.762;2022-11-18T02:33:14;4.95;;;2.80;;
12480;SDS011;6305;48.398;11.762;2022-11-18T02:35:49;5.03;;;2.80;;
12480;SDS011;6305;48.398;11.762;2022-11-18T02:38:22;7.88;;;3.15;;
12480;SDS011;6305;48.398;11.762;2022-11-18T02:40:54;3.95;;;2.60;;
12480;SDS011;6305;48.398;11.762;2022-11-18T02:43:25;5.55;;;3.03;;
12480;SDS011;6305;48.398;11.762;2022-11-18T02:45:57;4.68;;;2.95;;
12480;SDS011;6305;48.398;11.762;2022-11-18T02:48:28;8.00;;;3.22;;
12480;SDS011;6305;48.398;11.762;2022-11-18T02:50:57;5.68;;;3.20;;
12480;SDS011;6305;48.398;11.762;2022-11-18T02:53:26;5.28;;;3.33;;
12480;SDS011;6305;48.398;11.762;2022-11-18T02:55:57;8.27;;;3.97;;
12480;SDS011;6305;48.398;11.762;2022-11-18T02:58:26;6.80;;;3.92;;
12480;SDS011;6305;48.398;11.762;2022-11-18T03:00:53;6.80;;;3.42;;
12480;SDS011;6305;48.398;11.762;2022-11-18T03:03:24;6.63;;;3.72;;
12480;SDS011;6305;48.398;11.762;2022-11-18T03:05:53;9.70;;;4.18;;
12480;SDS011;6305;48.398;11.762;2022-11-18T03:08:34;5.43;;;3.60;;
12480;SDS011;6305;48.398;11.762;2022-11-18T03:11:06;6.80;;;3.42;;
12480;SDS011;6305;48.398;11.762;2022-11-18T03:13:39;7.90;;;3.47;;
12480;SDS011;6305;48.398;11.762;2022-11-18T03:16:16;5.88;;;3.25;;
12480;SDS011;6305;48.398;11.762;2022-11-18T03:18:50;7.05;;;3.78;;
12480;SDS011;6305;48.398;11.762;2022-11-18T03:21:22;6.97;;;3.65;;
12480;SDS011;6305;48.398;11.762;2022-11-18T03:23:58;5.90;;;3.42;;
12480;SDS011;6305;48.398;11.762;2022-11-18T03:26:33;6.00;;;3.97;;
12480;SDS011;6305;48.398;11.762;2022-11-18T03:29:05;7.10;;;4.05;;
12480;SDS011;6305;48.398;11.762;2022-11-18T03:31:36;9.75;;;4.22;;
12480;SDS011;6305;48.398;11.762;2022-11-18T03:34:08;6.85;;;3.80;;
12480;SDS011;6305;48.398;11.762;2022-11-18T03:36:39;8.27;;;3.35;;
12480;SDS011;6305;48.398;11.762;2022-11-18T03:39:10;7.25;;;3.40;;
12480;SDS011;6305;48.398;11.762;2022-11-18T03:41:41;7.00;;;3.30;;
12480;SDS011;6305;48.398;11.762;2022-11-18T03:44:16;4.43;;;2.70;;
12480;SDS011;6305;48.398;11.762;2022-11-18T03:46:46;6.00;;;2.72;;
12480;SDS011;6305;48.398;11.762;2022-11-18T03:49:18;7.97;;;2.92;;
12480;SDS011;6305;48.398;11.762;2022-11-18T03:51:57;5.55;;;2.92;;
12480;SDS011;6305;48.398;11.762;2022-11-18T03:54:29;5.50;;;2.97;;
12480;SDS011;6305;48.398;11.762;2022-11-18T03:56:58;6.07;;;3.05;;
12480;SDS011;6305;48.398;11.762;2022-11-18T03:59:31;5.15;;;2.90;;
12480;SDS011;6305;48.398;11.762;2022-11-18T04:02:02;4.75;;;2.72;;
12480;SDS011;6305;48.398;11.762;2022-11-18T04:04:35;6.40;;;2.75;;
12480;SDS011;6305;48.398;11.762;2022-11-18T04:07:03;4.50;;;2.58;;
12480;SDS011;6305;48.398;11.762;2022-11-18T04:09:36;5.13;;;2.65;;
12480;SDS011;6305;48.398;11.762;2022-11-18T04:12:09;6.40;;;2.70;;
12480;SDS011;6305;48.398;11.762;2022-11-18T04:14:39;7.80;;;3.10;;
12480;SDS011;6305;48.398;11.762;2022-11-18T04:17:08;4.93;;;2.88;;
12480;SDS011;6305;48.398;11.762;2022-11-18T04:19:38;6.18;;;2.67;;
12480;SDS011;6305;48.398;11.762;2022-11-18T04:22:05;5.38;;;3.05;;
12480;SDS011;6305;48.398;11.762;2022-11-18T04:24:32;5.57;;;3.10;;
12480;SDS011;6305;48.398;11.762;2022-11-18T04:26:59;6.13;;;3.10;;
12480;SDS011;6305;48.398;11.762;2022-11-18T04:29:26;5.55;;;2.88;;
12480;SDS011;6305;48.398;11.762;2022-11-18T04:31:53;6.80;;;3.20;;
12480;SDS011;6305;48.398;11.762;2022-11-18T04:34:20;7.13;;;3.33;;
12480;SDS011;6305;48.398;11.762;2022-11-18T04:36:48;8.18;;;3.58;;
12480;SDS011;6305;48.398;11.762;2022-11-18T04:39:14;5.63;;;3.30;;
12480;SDS011;6305;48.398;11.762;2022-11-18T04:41:42;10.15;;;4.03;;
12480;SDS011;6305;48.398;11.762;2022-11-18T04:44:22;7.45;;;3.85;;
12480;SDS011;6305;48.398;11.762;2022-11-18T04:46:49;9.27;;;3.90;;
12480;SDS011;6305;48.398;11.762;2022-11-18T04:49:17;8.00;;;4.10;;
12480;SDS011;6305;48.398;11.762;2022-11-18T04:51:44;7.55;;;3.67;;
12480;SDS011;6305;48.398;11.762;2022-11-18T04:54:12;7.03;;;3.33;;
12480;SDS011;6305;48.398;11.762;2022-11-18T04:56:40;8.43;;;3.95;;
12480;SDS011;6305;48.398;11.762;2022-11-18T04:59:08;7.05;;;3.13;;
12480;SDS011;6305;48.398;11.762;2022-11-18T05:01:35;7.30;;;3.17;;
12480;SDS011;6305;48.398;11.762;2022-11-18T05:04:03;6.45;;;2.97;;
12480;SDS011;6305;48.398;11.762;2022-11-18T05:06:31;6.45;;;2.95;;
12480;SDS011;6305;48.398;11.762;2022-11-18T05:08:59;6.72;;;3.35;;
12480;SDS011;6305;48.398;11.762;2022-11-18T05:11:28;6.38;;;2.85;;
12480;SDS011;6305;48.398;11.762;2022-11-18T05:14:12;7.13;;;4.00;;
12480;SDS011;6305;48.398;11.762;2022-11-18T05:16:40;7.22;;;3.00;;
12480;SDS011;6305;48.398;11.762;2022-11-18T05:19:07;4.95;;;2.65;;
12480;SDS011;6305;48.398;11.762;2022-11-18T05:21:34;4.93;;;3.30;;
12480;SDS011;6305;48.398;11.762;2022-11-18T05:24:02;5.72;;;2.60;;
12480;SDS011;6305;48.398;11.762;2022-11-18T05:26:31;5.05;;;2.40;;
12480;SDS011;6305;48.398;11.762;2022-11-18T05:28:57;9.25;;;3.60;;
12480;SDS011;6305;48.398;11.762;2022-11-18T05:31:24;5.45;;;2.92;;
12480;SDS011;6305;48.398;11.762;2022-11-18T05:33:51;3.72;;;2.70;;
12480;SDS011;6305;48.398;11.762;2022-11-18T05:36:19;8.98;;;5.03;;
12480;SDS011;6305;48.398;11.762;2022-11-18T05:38:46;9.10;;;4.38;;
12480;SDS011;6305;48.398;11.762;2022-11-18T05:41:13;7.57;;;3.20;;
12480;SDS011;6305;48.398;11.762;2022-11-18T05:44:02;3.95;;;2.22;;
12480;SDS011;6305;48.398;11.762;2022-11-18T05:46:29;2.83;;;1.63;;
12480;SDS011;6305;48.398;11.762;2022-11-18T05:48:56;2.33;;;1.30;;
12480;SDS011;6305;48.398;11.762;2022-11-18T05:51:23;3.05;;;1.40;;
12480;SDS011;6305;48.398;11.762;2022-11-18T05:53:51;3.45;;;1.40;;
12480;SDS011;6305;48.398;11.762;2022-11-18T05:56:19;1.63;;;1.20;;
12480;SDS011;6305;48.398;11.762;2022-11-18T05:58:50;4.45;;;1.27;;
12480;SDS011;6305;48.398;11.762;2022-11-18T06:01:19;2.65;;;1.30;;
12480;SDS011;6305;48.398;11.762;2022-11-18T06:03:52;1.83;;;1.20;;
12480;SDS011;6305;48.398;11.762;2022-11-18T06:06:20;2.42;;;1.17;;
12480;SDS011;6305;48.398;11.762;2022-11-18T06:08:48;2.72;;;1.40;;
12480;SDS011;6305;48.398;11.762;2022-11-18T06:11:20;1.92;;;1.02;;
12480;SDS011;6305;48.398;11.762;2022-11-18T06:13:49;1.38;;;1.00;;
12480;SDS011;6305;48.398;11.762;2022-11-18T06:16:21;1.83;;;1.23;;
12480;SDS011;6305;48.398;11.762;2022-11-18T06:18:51;3.00;;;1.17;;
12480;SDS011;6305;48.398;11.762;2022-11-18T06:21:19;3.33;;;1.20;;
12480;SDS011;6305;48.398;11.762;2022-11-18T06:23:46;1.17;;;0.90;;
12480;SDS011;6305;48.398;11.762;2022-11-18T06:26:13;3.42;;;1.02;;
12480;SDS011;6305;48.398;11.762;2022-11-18T06:28:41;1.20;;;0.90;;
12480;SDS011;6305;48.398;11.762;2022-11-18T06:31:09;1.20;;;0.90;;
12480;SDS011;6305;48.398;11.762;2022-11-18T06:33:38;0.93;;;0.80;;
12480;SDS011;6305;48.398;11.762;2022-11-18T06:36:05;1.27;;;1.02;;
12480;SDS011;6305;48.398;11.762;2022-11-18T06:38:32;0.93;;;0.80;;
12480;SDS011;6305;48.398;11.762;2022-11-18T06:40:59;1.85;;;0.95;;
12480;SDS011;6305;48.398;11.762;2022-11-18T06:43:26;1.92;;;1.00;;
12480;SDS011;6305;48.398;11.762;2022-11-18T06:46:07;1.92;;;0.93;;
12480;SDS011;6305;48.398;11.762;2022-11-18T06:48:54;1.13;;;0.95;;
12480;SDS011;6305;48.398;11.762;2022-11-18T06:51:21;1.30;;;0.95;;
12480;SDS011;6305;48.398;11.762;2022-11-18T06:53:48;0.95;;;0.90;;
12480;SDS011;6305;48.398;11.762;2022-11-18T06:56:16;2.65;;;1.10;;
12480;SDS011;6305;48.398;11.762;2022-11-18T06:58:44;1.17;;;1.00;;
12480;SDS011;6305;48.398;11.762;2022-11-18T07:01:11;1.58;;;1.02;;
12480;SDS011;6305;48.398;11.762;2022-11-18T07:03:40;1.77;;;1.08;;
12480;SDS011;6305;48.398;11.762;2022-11-18T07:06:09;1.90;;;1.20;;
12480;SDS011;6305;48.398;11.762;2022-11-18T07:08:39;1.83;;;1.20;;
12480;SDS011;6305;48.398;11.762;2022-11-18T07:11:07;1.83;;;1.27;;
12480;SDS011;6305;48.398;11.762;2022-11-18T07:13:36;2.03;;;1.50;;
12480;SDS011;6305;48.398;11.762;2022-11-18T07:16:03;3.13;;;1.73;;
12480;SDS011;6305;48.398;11.762;2022-11-18T07:18:31;3.00;;;1.98;;
12480;SDS011;6305;48.398;11.762;2022-11-18T07:21:00;2.97;;;2.00;;
12480;SDS011;6305;48.398;11.762;2022-11-18T07:23:29;4.35;;;2.58;;
12480;SDS011;6305;48.398;11.762;2022-11-18T07:25:56;3.72;;;2.40;;
12480;SDS011;6305;48.398;11.762;2022-11-18T07:28:23;3.78;;;2.83;;
12480;SDS011;6305;48.398;11.762;2022-11-18T07:30:50;3.75;;;2.47;;
12480;SDS011;6305;48.398;11.762;2022-11-18T07:33:17;3.80;;;2.85;;
12480;SDS011;6305;48.398;11.762;2022-11-18T07:35:44;4.43;;;2.80;;
12480;SDS011;6305;48.398;11.762;2022-11-18T07:38:11;4.90;;;2.80;;
12480;SDS011;6305;48.398;11.762;2022-11-18T07:40:39;4.25;;;2.63;;
12480;SDS011;6305;48.398;11.762;2022-11-18T07:43:06;6.70;;;3.10;;
12480;SDS011;6305;48.398;11.762;2022-11-18T07:45:53;5.35;;;3.00;;
12480;SDS011;6305;48.398;11.762;2022-11-18T07:48:27;3.67;;;2.50;;
12480;SDS011;6305;48.398;11.762;2022-11-18T07:50:59;5.47;;;2.50;;
12480;SDS011;6305;48.398;11.762;2022-11-18T07:53:28;4.43;;;3.00;;
12480;SDS011;6305;48.398;11.762;2022-11-18T07:55:56;4.38;;;2.60;;
12480;SDS011;6305;48.398;11.762;2022-11-18T07:58:23;6.80;;;3.22;;
12480;SDS011;6305;48.398;11.762;2022-11-18T08:00:50;4.45;;;2.58;;
12480;SDS011;6305;48.398;11.762;2022-11-18T08:03:17;4.80;;;2.70;;
12480;SDS011;6305;48.398;11.762;2022-11-18T08:05:44;3.70;;;2.40;;
12480;SDS011;6305;48.398;11.762;2022-11-18T08:08:11;4.68;;;2.70;;
12480;SDS011;6305;48.398;11.762;2022-11-18T08:10:37;6.03;;;1.90;;
12480;SDS011;6305;48.398;11.762;2022-11-18T08:13:06;3.30;;;1.88;;
12480;SDS011;6305;48.398;11.762;2022-11-18T08:15:32;3.78;;;1.70;;
12480;SDS011;6305;48.398;11.762;2022-11-18T08:17:59;4.40;;;1.70;;
12480;SDS011;6305;48.398;11.762;2022-11-18T08:20:26;2.47;;;1.70;;
12480;SDS011;6305;48.398;11.762;2022-11-18T08:22:53;1.85;;;1.40;;
12480;SDS011;6305;48.398;11.762;2022-11-18T08:25:19;2.22;;;1.67;;
12480;SDS011;6305;48.398;11.762;2022-11-18T08:27:46;2.00;;;1.63;;
12480;SDS011;6305;48.398;11.762;2022-11-18T08:30:14;2.17;;;1.33;;
12480;SDS011;6305;48.398;11.762;2022-11-18T08:32:41;3.08;;;1.40;;
12480;SDS011;6305;48.398;11.762;2022-11-18T08:35:08;1.75;;;1.10;;
12480;SDS011;6305;48.398;11.762;2022-11-18T08:37:35;1.52;;;1.10;;
12480;SDS011;6305;48.398;11.762;2022-11-18T08:40:02;1.73;;;1.55;;
12480;SDS011;6305;48.398;11.762;2022-11-18T08:42:30;2.13;;;1.20;;
12480;SDS011;6305;48.398;11.762;2022-11-18T08:44:57;1.23;;;1.00;;
12480;SDS011;6305;48.398;11.762;2022-11-18T08:47:25;1.27;;;0.88;;
12480;SDS011;6305;48.398;11.762;2022-11-18T08:49:52;2.40;;;1.20;;
12480;SDS011;6305;48.398;11.762;2022-11-18T08:52:18;2.42;;;1.23;;
12480;SDS011;6305;48.398;11.762;2022-11-18T08:54:45;1.17;;;1.08;;
12480;SDS011;6305;48.398;11.762;2022-11-18T08:57:12;1.52;;;0.80;;
12480;SDS011;6305;48.398;11.762;2022-11-18T08:59:38;0.98;;;0.88;;
12480;SDS011;6305;48.398;11.762;2022-11-18T09:02:11;1.85;;;0.70;;
12480;SDS011;6305;48.398;11.762;2022-11-18T09:04:40;0.70;;;0.70;;
12480;SDS011;6305;48.398;11.762;2022-11-18T09:07:06;0.80;;;0.80;;
12480;SDS011;6305;48.398;11.762;2022-11-18T09:09:33;0.68;;;0.60;;
12480;SDS011;6305;48.398;11.762;2022-11-18T09:12:00;0.52;;;0.47;;
12480;SDS011;6305;48.398;11.762;2022-11-18T09:14:27;1.95;;;0.60;;
12480;SDS011;6305;48.398;11.762;2022-11-18T09:16:54;0.60;;;0.60;;
12480;SDS011;6305;48.398;11.762;2022-11-18T09:19:23;0.50;;;0.50;;
12480;SDS011;6305;48.398;11.762;2022-11-18T09:21:51;2.05;;;0.70;;
12480;SDS011;6305;48.398;11.762;2022-11-18T09:24:18;1.27;;;0.80;;
12480;SDS011;6305;48.398;11.762;2022-11-18T09:26:45;0.50;;;0.50;;
12480;SDS011;6305;48.398;11.762;2022-11-18T09:29:12;0.65;;;0.57;;
12480;SDS011;6305;48.398;11.762;2022-11-18T09:31:38;2.05;;;0.73;;
12480;SDS011;6305;48.398;11.762;2022-11-18T09:34:05;0.55;;;0.55;;
12480;SDS011;6305;48.398;11.762;2022-11-18T09:36:34;0.82;;;0.60;;
12480;SDS011;6305;48.398;11.762;2022-11-18T09:39:02;1.23;;;0.70;;
12480;SDS011;6305;48.398;11.762;2022-11-18T09:41:36;0.73;;;0.60;;
12480;SDS011;6305;48.398;11.762;2022-11-18T09:44:12;0.50;;;0.50;;
12480;SDS011;6305;48.398;11.762;2022-11-18T09:46:54;0.50;;;0.50;;
12480;SDS011;6305;48.398;11.762;2022-11-18T09:49:31;0.55;;;0.55;;
12480;SDS011;6305;48.398;11.762;2022-11-18T09:52:01;1.05;;;0.73;;
12480;SDS011;6305;48.398;11.762;2022-11-18T09:54:32;0.50;;;0.50;;
12480;SDS011;6305;48.398;11.762;2022-11-18T09:57:00;0.50;;;0.50;;
12480;SDS011;6305;48.398;11.762;2022-11-18T09:59:29;1.15;;;0.35;;
12480;SDS011;6305;48.398;11.762;2022-11-18T10:02:00;0.30;;;0.30;;
12480;SDS011;6305;48.398;11.762;2022-11-18T10:04:36;0.50;;;0.50;;
12480;SDS011;6305;48.398;11.762;2022-11-18T10:07:04;0.63;;;0.55;;
12480;SDS011;6305;48.398;11.762;2022-11-18T10:09:36;0.50;;;0.50;;
12480;SDS011;6305;48.398;11.762;2022-11-18T10:12:13;0.60;;;0.60;;
12480;SDS011;6305;48.398;11.762;2022-11-18T10:14:54;0.40;;;0.40;;
12480;SDS011;6305;48.398;11.762;2022-11-18T10:17:34;0.82;;;0.55;;
12480;SDS011;6305;48.398;11.762;2022-11-18T10:20:16;0.90;;;0.45;;
12480;SDS011;6305;48.398;11.762;2022-11-18T10:22:51;0.50;;;0.50;;
12480;SDS011;6305;48.398;11.762;2022-11-18T10:25:21;0.63;;;0.50;;
12480;SDS011;6305;48.398;11.762;2022-11-18T10:27:49;5.30;;;0.60;;
12480;SDS011;6305;48.398;11.762;2022-11-18T10:30:17;0.52;;;0.50;;
12480;SDS011;6305;48.398;11.762;2022-11-18T10:32:52;0.45;;;0.45;;
12480;SDS011;6305;48.398;11.762;2022-11-18T10:35:25;0.40;;;0.40;;
12480;SDS011;6305;48.398;11.762;2022-11-18T10:38:03;0.55;;;0.50;;
12480;SDS011;6305;48.398;11.762;2022-11-18T10:40:33;0.47;;;0.45;;
12480;SDS011;6305;48.398;11.762;2022-11-18T10:43:02;0.50;;;0.50;;
12480;SDS011;6305;48.398;11.762;2022-11-18T10:45:30;0.47;;;0.47;;
12480;SDS011;6305;48.398;11.762;2022-11-18T10:47:58;1.00;;;0.60;;
12480;SDS011;6305;48.398;11.762;2022-11-18T10:50:28;0.68;;;0.60;;
12480;SDS011;6305;48.398;11.762;2022-11-18T10:52:56;1.70;;;0.82;;
12480;SDS011;6305;48.398;11.762;2022-11-18T10:55:23;0.52;;;0.50;;
12480;SDS011;6305;48.398;11.762;2022-11-18T10:57:54;0.40;;;0.40;;
12480;SDS011;6305;48.398;11.762;2022-11-18T11:00:37;0.40;;;0.40;;
12480;SDS011;6305;48.398;11.762;2022-11-18T11:03:23;0.55;;;0.50;;
12480;SDS011;6305;48.398;11.762;2022-11-18T11:08:53;0.38;;;0.35;;
12480;SDS011;6305;48.398;11.762;2022-11-18T11:11:22;1.77;;;0.50;;
12480;SDS011;6305;48.398;11.762;2022-11-18T11:13:55;0.75;;;0.55;;
12480;SDS011;6305;48.398;11.762;2022-11-18T11:16:28;1.45;;;0.55;;
12480;SDS011;6305;48.398;11.762;2022-11-18T11:18:58;0.40;;;0.40;;
12480;SDS011;6305;48.398;11.762;2022-11-18T11:21:27;0.40;;;0.40;;
12480;SDS011;6305;48.398;11.762;2022-11-18T11:23:54;1.25;;;0.55;;
12480;SDS011;6305;48.398;11.762;2022-11-18T11:26:24;0.28;;;0.22;;
12480;SDS011;6305;48.398;11.762;2022-11-18T11:29:00;0.63;;;0.40;;
12480;SDS011;6305;48.398;11.762;2022-11-18T11:31:35;0.77;;;0.50;;
12480;SDS011;6305;48.398;11.762;2022-11-18T11:34:10;0.45;;;0.45;;
12480;SDS011;6305;48.398;11.762;2022-11-18T11:36:49;0.77;;;0.50;;
12480;SDS011;6305;48.398;11.762;2022-11-18T11:39:38;0.63;;;0.40;;
12480;SDS011;6305;48.398;11.762;2022-11-18T11:42:19;0.35;;;0.30;;
12480;SDS011;6305;48.398;11.762;2022-11-18T11:45:00;0.63;;;0.40;;
12480;SDS011;6305;48.398;11.762;2022-11-18T11:47:41;1.20;;;0.60;;
12480;SDS011;6305;48.398;11.762;2022-11-18T11:50:27;1.15;;;0.65;;
12480;SDS011;6305;48.398;11.762;2022-11-18T11:53:19;1.33;;;0.80;;
12480;SDS011;6305;48.398;11.762;2022-11-18T11:55:57;0.70;;;0.60;;
12480;SDS011;6305;48.398;11.762;2022-11-18T11:58:38;0.50;;;0.45;;
12480;SDS011;6305;48.398;11.762;2022-11-18T12:01:18;0.85;;;0.50;;
12480;SDS011;6305;48.398;11.762;2022-11-18T12:03:52;0.30;;;0.30;;
12480;SDS011;6305;48.398;11.762;2022-11-18T12:06:27;0.68;;;0.60;;
12480;SDS011;6305;48.398;11.762;2022-11-18T12:08:58;0.47;;;0.47;;
12480;SDS011;6305;48.398;11.762;2022-11-18T12:11:32;0.70;;;0.60;;
12480;SDS011;6305;48.398;11.762;2022-11-18T12:14:06;0.60;;;0.60;;
12480;SDS011;6305;48.398;11.762;2022-11-18T12:16:41;2.00;;;0.70;;
12480;SDS011;6305;48.398;11.762;2022-11-18T12:19:15;0.95;;;0.60;;
12480;SDS011;6305;48.398;11.762;2022-11-18T12:21:53;0.93;;;0.65;;
12480;SDS011;6305;48.398;11.762;2022-11-18T12:24:34;0.20;;;0.20;;
12480;SDS011;6305;48.398;11.762;2022-11-18T12:27:04;0.82;;;0.60;;
12480;SDS011;6305;48.398;11.762;2022-11-18T12:29:40;1.30;;;0.70;;
12480;SDS011;6305;48.398;11.762;2022-11-18T12:32:29;0.88;;;0.70;;
12480;SDS011;6305;48.398;11.762;2022-11-18T12:35:01;1.95;;;0.80;;
12480;SDS011;6305;48.398;11.762;2022-11-18T12:37:38;0.73;;;0.65;;
12480;SDS011;6305;48.398;11.762;2022-11-18T12:40:30;0.38;;;0.30;;
12480;SDS011;6305;48.398;11.762;2022-11-18T12:42:59;0.60;;;0.60;;
12480;SDS011;6305;48.398;11.762;2022-11-18T12:48:35;0.77;;;0.60;;
12480;SDS011;6305;48.398;11.762;2022-11-18T12:54:26;0.98;;;0.60;;
12480;SDS011;6305;48.398;11.762;2022-11-18T12:56:56;1.00;;;0.60;;
12480;SDS011;6305;48.398;11.762;2022-11-18T12:59:25;1.17;;;0.90;;
12480;SDS011;6305;48.398;11.762;2022-11-18T13:02:15;0.60;;;0.60;;
12480;SDS011;6305;48.398;11.762;2022-11-18T13:04:49;1.48;;;0.60;;
12480;SDS011;6305;48.398;11.762;2022-11-18T13:07:40;0.45;;;0.45;;
12480;SDS011;6305;48.398;11.762;2022-11-18T13:10:28;0.80;;;0.50;;
12480;SDS011;6305;48.398;11.762;2022-11-18T13:12:57;0.98;;;0.50;;
12480;SDS011;6305;48.398;11.762;2022-11-18T13:15:24;0.50;;;0.50;;
12480;SDS011;6305;48.398;11.762;2022-11-18T13:18:12;1.10;;;1.00;;
12480;SDS011;6305;48.398;11.762;2022-11-18T13:20:42;0.35;;;0.35;;
12480;SDS011;6305;48.398;11.762;2022-11-18T13:23:23;1.45;;;0.80;;
12480;SDS011;6305;48.398;11.762;2022-11-18T13:26:14;0.60;;;0.60;;
12480;SDS011;6305;48.398;11.762;2022-11-18T13:28:50;0.70;;;0.70;;
12480;SDS011;6305;48.398;11.762;2022-11-18T13:31:28;0.90;;;0.75;;
12480;SDS011;6305;48.398;11.762;2022-11-18T13:34:00;2.25;;;0.90;;
12480;SDS011;6305;48.398;11.762;2022-11-18T13:36:29;2.72;;;0.82;;
12480;SDS011;6305;48.398;11.762;2022-11-18T13:38:58;3.42;;;1.15;;
12480;SDS011;6305;48.398;11.762;2022-11-18T13:41:37;2.90;;;1.13;;
12480;SDS011;6305;48.398;11.762;2022-11-18T13:44:10;1.38;;;1.20;;
12480;SDS011;6305;48.398;11.762;2022-11-18T13:47:12;1.05;;;0.57;;
12480;SDS011;6305;48.398;11.762;2022-11-18T13:50:03;0.88;;;0.65;;
12480;SDS011;6305;48.398;11.762;2022-11-18T13:52:41;1.52;;;0.70;;
12480;SDS011;6305;48.398;11.762;2022-11-18T13:55:23;1.00;;;0.90;;
12480;SDS011;6305;48.398;11.762;2022-11-18T13:57:57;2.97;;;0.80;;
12480;SDS011;6305;48.398;11.762;2022-11-18T14:01:04;1.38;;;0.75;;
12480;SDS011;6305;48.398;11.762;2022-11-18T14:03:48;0.85;;;0.80;;
12480;SDS011;6305;48.398;11.762;2022-11-18T14:06:24;0.90;;;0.80;;
12480;SDS011;6305;48.398;11.762;2022-11-18T14:09:03;2.33;;;1.05;;
12480;SDS011;6305;48.398;11.762;2022-11-18T14:11:35;1.00;;;0.80;;
12480;SDS011;6305;48.398;11.762;2022-11-18T14:14:04;1.30;;;0.90;;
12480;SDS011;6305;48.398;11.762;2022-11-18T14:16:32;2.33;;;0.90;;
12480;SDS011;6305;48.398;11.762;2022-11-18T14:19:00;0.85;;;0.63;;
12480;SDS011;6305;48.398;11.762;2022-11-18T14:21:29;2.53;;;1.08;;
12480;SDS011;6305;48.398;11.762;2022-11-18T14:23:57;1.40;;;0.90;;
12480;SDS011;6305;48.398;11.762;2022-11-18T14:26:27;4.95;;;1.42;;
12480;SDS011;6305;48.398;11.762;2022-11-18T14:28:55;2.38;;;1.30;;
12480;SDS011;6305;48.398;11.762;2022-11-18T14:31:24;1.63;;;1.23;;
12480;SDS011;6305;48.398;11.762;2022-11-18T14:36:42;2.30;;;1.42;;
12480;SDS011;6305;48.398;11.762;2022-11-18T14:39:12;2.17;;;1.40;;
12480;SDS011;6305;48.398;11.762;2022-11-18T14:41:49;2.25;;;1.60;;
12480;SDS011;6305;48.398;11.762;2022-11-18T14:44:16;1.30;;;1.20;;
12480;SDS011;6305;48.398;11.762;2022-11-18T14:46:46;1.08;;;1.00;;
12480;SDS011;6305;48.398;11.762;2022-11-18T14:49:18;1.67;;;1.30;;
12480;SDS011;6305;48.398;11.762;2022-11-18T14:51:46;1.35;;;1.08;;
12480;SDS011;6305;48.398;11.762;2022-11-18T14:54:14;1.35;;;1.23;;
12480;SDS011;6305;48.398;11.762;2022-11-18T14:56:42;2.45;;;1.38;;
12480;SDS011;6305;48.398;11.762;2022-11-18T14:59:12;2.00;;;1.58;;
12480;SDS011;6305;48.398;11.762;2022-11-18T15:01:40;2.05;;;1.60;;
12480;SDS011;6305;48.398;11.762;2022-11-18T15:04:08;2.20;;;1.70;;
12480;SDS011;6305;48.398;11.762;2022-11-18T15:06:35;3.08;;;1.80;;
12480;SDS011;6305;48.398;11.762;2022-11-18T15:09:04;2.17;;;1.80;;
12480;SDS011;6305;48.398;11.762;2022-11-18T15:11:32;1.85;;;1.50;;
12480;SDS011;6305;48.398;11.762;2022-11-18T15:13:59;2.65;;;1.80;;
12480;SDS011;6305;48.398;11.762;2022-11-18T15:16:28;2.20;;;1.70;;
12480;SDS011;6305;48.398;11.762;2022-11-18T15:18:57;2.50;;;1.98;;
12480;SDS011;6305;48.398;11.762;2022-11-18T15:21:25;2.80;;;2.00;;
12480;SDS011;6305;48.398;11.762;2022-11-18T15:23:52;2.20;;;1.65;;
12480;SDS011;6305;48.398;11.762;2022-11-18T15:26:20;3.30;;;2.15;;
12480;SDS011;6305;48.398;11.762;2022-11-18T15:28:49;2.33;;;1.83;;